首页
METAR-TAF:

METAR-TAF

机场 :

蘇萊曼尼亞, 伊拉克

纬度: 35-33-39N, 经度: 45-18-52E, 海拔: 760米

当前天气观测

该预报发布于17分钟前的07:00 UTC
风速4节,风向东南
温度 13°C
湿度 72%
气压 1017 hPa
能见度10公里或以上
1500米以下无云,无积雨云

METAR: ORSU 290700Z 14004KT CAVOK 13/08 Q1017

时间: 10:17 (07:17 UTC)

预报

该预报发布于2小时和17分钟前的05:00 UTC
预报有效从29日的 06点(UTC)到 01日的 06点(UTC)
风速5节,风向西转西南
能见度10公里或以上
1500米以下无云,无积雨云
成为
从 29日的 20点(UTC)到 29日的 22点(UTC)
能見度: 8000
少量云层高于4500英尺
散云层高于8000英尺

TAF: ORSU 290500Z 2906/0106 25005KT CAVOK BECMG 2920/2922 8000 FEW045 SCT080

超过4000个机场的气象观测和天气预报(METAR&TAF报告)。

可查询的气象台以黄色和红色小点在地图上表示。

将鼠标移到小点上方,可查看气象台名称。

然后点击查看天气观测和预报。

如需切换地图:点击带黑十字的绿色按钮放大地图;点击带横线的绿色按钮缩小地图;或者点击绿色箭头查看邻近地区的地图。


METAR-TAF: